createdAt,value
2023-02-24T00:02:15.003Z,53.95
2023-02-24T00:04:44.081Z,54.45
2023-02-24T00:07:12.839Z,55.95
2023-02-24T00:09:40.282Z,55.03
2023-02-24T00:12:10.754Z,53.95
2023-02-24T00:14:40.479Z,57.40
2023-02-24T00:17:08.317Z,51.85
2023-02-24T00:19:36.761Z,53.13
2023-02-24T00:22:05.981Z,56.17
2023-02-24T00:24:33.888Z,53.40
2023-02-24T00:27:02.361Z,55.47
2023-02-24T00:29:30.095Z,53.45
2023-02-24T00:32:01.276Z,54.95
2023-02-24T00:34:31.172Z,54.67
2023-02-24T00:36:59.367Z,53.85
2023-02-24T00:39:30.765Z,51.70
2023-02-24T00:42:04.683Z,48.72
2023-02-24T00:44:39.470Z,52.78
2023-02-24T00:47:08.265Z,54.13
2023-02-24T00:49:36.395Z,54.90
2023-02-24T00:52:08.048Z,49.65
2023-02-24T00:54:38.373Z,51.03
2023-02-24T00:57:08.265Z,49.22
2023-02-24T00:59:36.568Z,51.00
2023-02-24T01:02:04.104Z,50.38
2023-02-24T01:04:32.150Z,63.35
2023-02-24T01:07:02.144Z,56.17
2023-02-24T01:09:31.686Z,59.92
2023-02-24T01:12:22.112Z,54.70
2023-02-24T01:14:52.139Z,52.35
2023-02-24T01:17:20.895Z,50.65
2023-02-24T01:19:49.917Z,47.85
2023-02-24T01:22:19.815Z,47.20
2023-02-24T01:24:48.468Z,49.15
2023-02-24T01:27:19.992Z,69.22
2023-02-24T01:29:48.377Z,45.80
2023-02-24T01:32:19.455Z,60.90
2023-02-24T01:34:51.037Z,51.00
2023-02-24T01:37:19.263Z,46.60
2023-02-24T01:39:47.780Z,50.47
2023-02-24T01:42:19.351Z,48.28
2023-02-24T01:44:46.841Z,49.80
2023-02-24T01:47:16.110Z,48.88
2023-02-24T01:49:49.559Z,47.78
2023-02-24T01:52:22.188Z,46.67
2023-02-24T01:54:58.048Z,48.85
2023-02-24T01:57:29.485Z,48.35
2023-02-24T02:00:09.533Z,56.35
2023-02-24T02:02:39.168Z,51.75
2023-02-24T02:05:09.709Z,52.90
2023-02-24T02:07:41.579Z,57.17
2023-02-24T02:10:09.705Z,61.83
2023-02-24T02:12:44.037Z,62.25
2023-02-24T02:15:15.265Z,61.00
2023-02-24T02:18:07.117Z,61.17
2023-02-24T02:20:56.636Z,63.13
2023-02-24T02:23:50.195Z,64.18
2023-02-24T02:26:30.080Z,64.13
2023-02-24T02:29:02.910Z,62.78
2023-02-24T02:31:55.327Z,62.40
2023-02-24T02:34:36.853Z,62.33
2023-02-24T02:37:47.480Z,56.85
2023-02-24T02:40:24.143Z,52.58
2023-02-24T02:43:14.150Z,57.15
2023-02-24T02:45:51.771Z,57.50
2023-02-24T02:48:31.049Z,54.08
2023-02-24T02:51:04.286Z,55.90
2023-02-24T02:53:54.610Z,56.90
2023-02-24T02:56:30.683Z,52.80
2023-02-24T02:59:00.741Z,57.58
2023-02-24T03:01:33.371Z,52.83
2023-02-24T03:04:06.104Z,52.17
2023-02-24T03:06:37.676Z,53.73
2023-02-24T03:09:16.017Z,48.00
2023-02-24T03:11:49.022Z,49.22
2023-02-24T03:14:20.240Z,53.80
2023-02-24T03:16:49.903Z,51.70
2023-02-24T03:19:20.985Z,41.88
2023-02-24T03:21:59.136Z,47.33
2023-02-24T03:24:27.968Z,44.17
2023-02-24T03:27:06.734Z,43.45
2023-02-24T03:29:50.408Z,46.55
2023-02-24T03:32:26.846Z,44.55
2023-02-24T03:35:18.059Z,42.30
2023-02-24T03:37:47.328Z,44.72
2023-02-24T03:40:15.747Z,39.58
2023-02-24T03:42:47.215Z,39.60
2023-02-24T03:45:16.303Z,41.10
2023-02-24T03:47:45.534Z,43.03
2023-02-24T03:50:15.312Z,38.08
2023-02-24T03:53:01.510Z,36.75
2023-02-24T03:55:34.719Z,36.17
2023-02-24T03:58:28.140Z,35.83
2023-02-24T04:01:05.669Z,37.15
2023-02-24T04:03:57.722Z,32.67
2023-02-24T04:06:33.828Z,34.53
2023-02-24T04:09:29.987Z,37.10
2023-02-24T04:12:13.865Z,32.20
2023-02-24T04:17:25.043Z,28.20
2023-02-24T04:19:56.222Z,27.48
2023-02-24T04:22:26.621Z,27.98
2023-02-24T04:24:59.598Z,30.05
2023-02-24T04:27:28.657Z,27.40
2023-02-24T04:30:00.061Z,25.02
2023-02-24T04:32:30.164Z,25.00
2023-02-24T04:35:25.258Z,24.40
2023-02-24T04:37:52.721Z,22.25
2023-02-24T04:40:22.165Z,23.60
2023-02-24T04:42:51.893Z,23.33
2023-02-24T04:45:30.623Z,23.08
2023-02-24T04:48:02.084Z,23.85
2023-02-24T04:50:31.984Z,21.58
2023-02-24T04:53:01.735Z,20.88
2023-02-24T04:55:33.075Z,20.60
2023-02-24T04:58:01.844Z,19.65
2023-02-24T05:00:41.276Z,19.80
2023-02-24T05:03:11.475Z,19.25
2023-02-24T05:05:38.724Z,19.27
2023-02-24T05:08:08.676Z,20.35
2023-02-24T05:10:41.756Z,18.33
2023-02-24T05:15:42.023Z,15.98
2023-02-24T05:18:14.090Z,16.95
2023-02-24T05:21:02.509Z,15.32
2023-02-24T05:23:35.796Z,15.57
2023-02-24T05:26:08.557Z,15.25
2023-02-24T05:28:38.246Z,15.15
2023-02-24T05:31:08.435Z,15.98
2023-02-24T05:33:42.539Z,16.70
2023-02-24T05:36:15.157Z,14.57
2023-02-24T05:38:44.020Z,16.08
2023-02-24T05:41:17.656Z,14.80
2023-02-24T05:43:53.540Z,14.27
2023-02-24T05:46:28.292Z,13.57
2023-02-24T05:48:57.546Z,16.25
2023-02-24T05:51:35.312Z,15.23
2023-02-24T05:54:04.783Z,15.75
2023-02-24T05:56:37.292Z,14.48
2023-02-24T05:59:08.996Z,13.25
2023-02-24T06:01:38.077Z,13.45
2023-02-24T06:04:07.475Z,14.68
2023-02-24T06:06:38.792Z,15.55
2023-02-24T06:09:13.132Z,13.95
2023-02-24T06:11:42.184Z,13.50
2023-02-24T06:14:11.329Z,13.05
2023-02-24T06:16:40.151Z,12.30
2023-02-24T06:19:10.382Z,11.73
2023-02-24T06:21:41.283Z,12.25
2023-02-24T06:24:14.551Z,12.00
2023-02-24T06:26:45.432Z,12.60
2023-02-24T06:29:14.869Z,12.23
2023-02-24T06:31:43.103Z,12.88
2023-02-24T06:34:11.636Z,12.43
2023-02-24T06:36:38.739Z,12.90
2023-02-24T06:39:09.476Z,13.45
2023-02-24T06:41:37.864Z,14.38
2023-02-24T06:44:05.388Z,14.40
2023-02-24T06:46:32.337Z,13.13
2023-02-24T06:48:59.659Z,14.32
2023-02-24T06:51:30.111Z,15.35
2023-02-24T06:53:59.614Z,15.20
2023-02-24T06:56:27.756Z,14.68
2023-02-24T06:58:57.397Z,14.90
2023-02-24T07:01:27.918Z,12.75
2023-02-24T07:04:12.977Z,13.13
2023-02-24T07:06:42.172Z,11.70
2023-02-24T07:09:13.136Z,12.27
2023-02-24T07:11:46.665Z,12.13
2023-02-24T07:14:15.667Z,12.40
2023-02-24T07:16:45.500Z,12.23
2023-02-24T07:19:15.743Z,10.82
2023-02-24T07:21:49.754Z,10.60
2023-02-24T07:24:25.346Z,10.80
2023-02-24T07:26:57.475Z,11.05
2023-02-24T07:29:25.957Z,11.23
2023-02-24T07:31:54.974Z,11.57
2023-02-24T07:34:25.180Z,11.48
2023-02-24T07:36:54.525Z,11.63
2023-02-24T07:39:23.201Z,22.85
2023-02-24T07:41:51.852Z,30.42
2023-02-24T07:44:21.072Z,18.02
2023-02-24T07:46:49.266Z,11.63
2023-02-24T07:49:20.287Z,13.65
2023-02-24T07:51:52.701Z,12.32
2023-02-24T07:54:25.232Z,13.35
2023-02-24T07:56:59.047Z,12.23
2023-02-24T07:59:29.332Z,12.57
2023-02-24T08:01:56.858Z,21.90
2023-02-24T08:04:30.257Z,20.25
2023-02-24T08:07:02.382Z,18.95
2023-02-24T08:09:46.163Z,15.33
2023-02-24T08:12:17.836Z,20.48
2023-02-24T08:14:50.721Z,19.23
2023-02-24T08:17:20.130Z,15.98
2023-02-24T08:19:49.744Z,15.98
2023-02-24T08:22:20.907Z,13.10
2023-02-24T08:24:56.145Z,15.25
2023-02-24T08:27:25.229Z,19.20
2023-02-24T08:30:01.349Z,20.05
2023-02-24T08:32:37.144Z,18.48
2023-02-24T08:35:15.279Z,12.95
2023-02-24T08:37:47.669Z,14.25
2023-02-24T08:40:47.490Z,15.65
2023-02-24T08:43:16.321Z,14.23
2023-02-24T08:45:50.877Z,10.50
2023-02-24T08:50:56.213Z,16.55
2023-02-24T08:53:29.638Z,20.17
2023-02-24T08:55:59.772Z,16.92
2023-02-24T08:58:27.284Z,18.08
2023-02-24T09:00:57.093Z,17.40
2023-02-24T09:03:29.229Z,15.43
2023-02-24T09:06:04.703Z,11.02
2023-02-24T09:08:33.983Z,10.35
2023-02-24T09:11:08.030Z,19.92
2023-02-24T09:13:37.196Z,16.30
2023-02-24T09:16:05.349Z,17.65
2023-02-24T09:18:38.357Z,21.02
2023-02-24T09:24:00.387Z,10.35
2023-02-24T09:26:32.613Z,23.30
2023-02-24T09:28:59.841Z,26.85
2023-02-24T09:31:40.673Z,13.90
2023-02-24T09:34:18.393Z,19.20
2023-02-24T09:37:01.366Z,18.60
2023-02-24T09:39:54.640Z,26.33
2023-02-24T09:42:29.299Z,14.52
2023-02-24T09:45:02.215Z,25.00
2023-02-24T09:47:40.235Z,17.52
2023-02-24T09:50:38.293Z,19.33
2023-02-24T09:53:17.191Z,16.23
2023-02-24T09:56:05.513Z,15.02
2023-02-24T09:58:53.094Z,22.95
2023-02-24T10:01:23.564Z,53.20
2023-02-24T10:04:18.662Z,19.70
2023-02-24T10:07:12.888Z,16.20
2023-02-24T10:10:11.131Z,17.98
2023-02-24T10:12:40.299Z,17.58
2023-02-24T10:15:32.234Z,17.80
2023-02-24T10:18:16.377Z,20.50
2023-02-24T10:20:45.794Z,11.52
2023-02-24T10:23:16.035Z,21.13
2023-02-24T10:25:54.467Z,14.65
2023-02-24T10:28:51.812Z,15.00
2023-02-24T10:31:35.803Z,14.75
2023-02-24T10:34:08.755Z,10.88
2023-02-24T10:36:36.801Z,17.00
2023-02-24T10:39:15.525Z,13.27
2023-02-24T10:41:46.064Z,13.70
2023-02-24T10:44:21.107Z,17.80
2023-02-24T10:46:59.042Z,15.18
2023-02-24T10:49:26.779Z,13.63
2023-02-24T10:51:54.410Z,15.10
2023-02-24T10:54:45.043Z,18.50
2023-02-24T10:57:38.288Z,15.57
2023-02-24T11:00:17.784Z,17.27
2023-02-24T11:03:14.075Z,15.82
2023-02-24T11:06:04.512Z,16.23
2023-02-24T11:08:44.298Z,15.70
2023-02-24T11:11:29.835Z,15.55
2023-02-24T11:14:19.454Z,15.73
2023-02-24T11:17:11.387Z,13.23
2023-02-24T11:20:00.898Z,18.75
2023-02-24T11:22:33.961Z,16.88
2023-02-24T11:27:32.941Z,16.00
2023-02-24T11:30:09.120Z,19.98
2023-02-24T11:33:00.823Z,18.52
2023-02-24T11:35:41.801Z,16.58
2023-02-24T11:38:19.302Z,18.40
2023-02-24T11:40:51.718Z,17.70
2023-02-24T11:43:25.701Z,14.52
2023-02-24T11:46:07.280Z,17.00
2023-02-24T11:48:42.573Z,18.33
2023-02-24T11:51:30.219Z,19.85
2023-02-24T11:54:02.739Z,19.42
2023-02-24T11:56:38.871Z,17.08
2023-02-24T11:59:19.639Z,16.48
2023-02-24T12:02:08.830Z,15.05
2023-02-24T12:04:41.202Z,13.68
2023-02-24T12:07:34.843Z,17.42
2023-02-24T12:10:16.780Z,16.40
2023-02-24T12:13:10.995Z,13.93
2023-02-24T12:16:00.506Z,14.30
2023-02-24T12:18:34.562Z,13.25
2023-02-24T12:21:14.902Z,14.70
2023-02-24T12:23:45.657Z,19.05
2023-02-24T12:26:32.332Z,15.23
2023-02-24T12:29:20.559Z,12.90
2023-02-24T12:32:22.388Z,14.57
2023-02-24T12:35:21.645Z,18.33
2023-02-24T12:38:35.912Z,18.08
2023-02-24T12:41:24.033Z,15.20
2023-02-24T12:44:02.442Z,19.80
2023-02-24T12:46:40.073Z,27.35
2023-02-24T12:49:29.193Z,27.23
2023-02-24T12:52:09.472Z,15.20
2023-02-24T12:55:06.219Z,16.13
2023-02-24T12:57:48.290Z,16.00
2023-02-24T13:00:29.693Z,17.30
2023-02-24T13:03:15.739Z,14.18
2023-02-24T13:06:05.334Z,15.50
2023-02-24T13:09:05.928Z,15.02
2023-02-24T13:11:42.193Z,15.15
2023-02-24T13:14:12.141Z,16.15
2023-02-24T13:16:39.223Z,16.30
2023-02-24T13:19:27.641Z,18.48
2023-02-24T13:22:22.123Z,14.18
2023-02-24T13:25:17.498Z,14.52
2023-02-24T13:27:54.136Z,21.08
2023-02-24T13:30:26.764Z,23.38
2023-02-24T13:33:06.098Z,16.85
2023-02-24T13:35:36.630Z,14.23
2023-02-24T13:38:31.048Z,19.90
2023-02-24T13:41:21.176Z,25.52
2023-02-24T13:43:59.978Z,19.50
2023-02-24T13:46:33.745Z,18.45
2023-02-24T13:51:52.971Z,16.27
2023-02-24T13:54:46.710Z,16.55
2023-02-24T13:57:31.982Z,16.92
2023-02-24T14:00:36.375Z,16.38
2023-02-24T14:03:11.030Z,17.15
2023-02-24T14:05:41.906Z,13.63
2023-02-24T14:08:37.017Z,16.48
2023-02-24T14:11:04.229Z,16.77
2023-02-24T14:13:34.280Z,14.43
2023-02-24T14:16:10.851Z,14.65
2023-02-24T14:18:39.093Z,14.23
2023-02-24T14:21:06.199Z,12.48
2023-02-24T14:23:34.831Z,13.88
2023-02-24T14:26:08.088Z,12.60
2023-02-24T14:28:37.677Z,16.65
2023-02-24T14:31:16.509Z,17.73
2023-02-24T14:33:45.347Z,16.08
2023-02-24T14:36:22.790Z,15.75
2023-02-24T14:39:15.458Z,15.63
2023-02-24T14:41:43.073Z,21.38
2023-02-24T14:44:27.732Z,18.35
2023-02-24T14:46:57.838Z,13.20
2023-02-24T14:49:32.731Z,15.30
2023-02-24T14:52:19.120Z,15.27
2023-02-24T14:54:53.084Z,15.35
2023-02-24T14:57:34.664Z,13.80
2023-02-24T15:00:10.899Z,17.25
2023-02-24T15:02:43.778Z,14.40
2023-02-24T15:05:11.963Z,18.00
2023-02-24T15:07:39.901Z,18.73
2023-02-24T15:10:17.342Z,16.48
2023-02-24T15:12:48.679Z,17.30
2023-02-24T15:15:27.072Z,18.80
2023-02-24T15:17:57.892Z,17.98
2023-02-24T15:20:26.595Z,22.23
2023-02-24T15:22:53.787Z,17.60
2023-02-24T15:25:37.229Z,22.38
2023-02-24T15:28:26.870Z,16.42
2023-02-24T15:31:30.174Z,20.77
2023-02-24T15:34:00.307Z,16.77
2023-02-24T15:36:36.118Z,15.18
2023-02-24T15:39:07.432Z,17.95
2023-02-24T15:42:05.436Z,14.73
2023-02-24T15:44:34.443Z,19.92
2023-02-24T15:47:20.398Z,16.85
2023-02-24T15:49:47.478Z,17.92
2023-02-24T15:52:17.381Z,18.45
2023-02-24T15:54:44.417Z,19.15
2023-02-24T15:57:16.529Z,13.13
2023-02-24T15:59:44.607Z,16.65
2023-02-24T16:02:15.832Z,16.25
2023-02-24T16:04:43.068Z,12.13
2023-02-24T16:07:17.271Z,15.23
2023-02-24T16:09:45.852Z,17.55
2023-02-24T16:12:21.733Z,20.67
2023-02-24T16:14:55.937Z,18.20
2023-02-24T16:17:39.946Z,16.15
2023-02-24T16:20:12.545Z,17.63
2023-02-24T16:22:39.850Z,14.13
2023-02-24T16:25:07.400Z,18.83
2023-02-24T16:27:35.932Z,19.52
2023-02-24T16:30:03.889Z,17.48
2023-02-24T16:32:31.328Z,12.98
2023-02-24T16:34:58.444Z,18.88
2023-02-24T16:37:29.901Z,14.45
2023-02-24T16:39:59.462Z,13.52
2023-02-24T16:42:27.225Z,12.63
2023-02-24T16:44:54.172Z,13.60
2023-02-24T16:47:24.263Z,12.18
2023-02-24T16:49:55.270Z,14.77
2023-02-24T16:52:24.745Z,12.43
2023-02-24T16:54:51.842Z,13.77
2023-02-24T16:57:19.137Z,16.63
2023-02-24T16:59:46.408Z,15.02
2023-02-24T17:02:20.003Z,20.83
2023-02-24T17:04:46.969Z,18.90
2023-02-24T17:07:19.129Z,14.45
2023-02-24T17:09:46.067Z,12.95
2023-02-24T17:12:15.323Z,17.38
2023-02-24T17:14:42.434Z,13.65
2023-02-24T17:17:11.644Z,16.83
2023-02-24T17:19:39.382Z,15.30
2023-02-24T17:22:06.645Z,14.63
2023-02-24T17:24:33.821Z,15.55
2023-02-24T17:27:01.292Z,15.65
2023-02-24T17:29:28.261Z,18.58
2023-02-24T17:31:57.304Z,15.05
2023-02-24T17:34:24.497Z,19.65
2023-02-24T17:36:51.787Z,15.13
2023-02-24T17:39:18.773Z,17.75
2023-02-24T17:41:46.046Z,16.63
2023-02-24T17:44:13.153Z,14.32
2023-02-24T17:46:40.486Z,16.40
2023-02-24T17:49:07.611Z,17.30
2023-02-24T17:51:34.987Z,18.80
2023-02-24T17:54:02.025Z,16.48
2023-02-24T17:56:29.700Z,13.63
2023-02-24T17:58:58.890Z,19.75
2023-02-24T18:01:27.068Z,18.17
2023-02-24T18:03:57.986Z,25.67
2023-02-24T18:06:25.459Z,16.55
2023-02-24T18:08:52.426Z,15.88
2023-02-24T18:11:20.077Z,19.95
2023-02-24T18:13:50.779Z,14.35
2023-02-24T18:16:18.121Z,20.02
2023-02-24T18:18:45.228Z,18.50
2023-02-24T18:21:12.531Z,18.08
2023-02-24T18:23:40.206Z,19.45
2023-02-24T18:26:09.521Z,14.85
2023-02-24T18:28:36.937Z,17.02
2023-02-24T18:31:25.670Z,15.07
2023-02-24T18:33:53.576Z,15.77
2023-02-24T18:36:21.441Z,16.52
2023-02-24T18:38:48.571Z,15.38
2023-02-24T18:41:21.613Z,16.35
2023-02-24T18:43:50.314Z,14.35
2023-02-24T18:46:18.632Z,17.83
2023-02-24T18:48:46.877Z,16.33
2023-02-24T18:51:17.172Z,13.35
2023-02-24T18:53:44.909Z,15.88
2023-02-24T18:56:23.788Z,15.95
2023-02-24T18:58:52.625Z,16.90
2023-02-24T19:01:24.468Z,14.00
2023-02-24T19:03:52.631Z,19.40
2023-02-24T19:06:21.546Z,16.13
2023-02-24T19:08:50.779Z,13.63
2023-02-24T19:11:19.889Z,16.10
2023-02-24T19:13:47.797Z,13.65
2023-02-24T19:16:16.169Z,17.70
2023-02-24T19:18:43.878Z,14.93
2023-02-24T19:21:11.610Z,16.08
2023-02-24T19:23:38.823Z,14.50
2023-02-24T19:26:07.564Z,13.68
2023-02-24T19:28:34.526Z,17.20
2023-02-24T19:31:01.837Z,15.32
2023-02-24T19:33:28.786Z,13.55
2023-02-24T19:35:59.557Z,16.02
2023-02-24T19:38:26.600Z,19.40
2023-02-24T19:40:58.437Z,14.55
2023-02-24T19:43:25.477Z,13.32
2023-02-24T19:45:53.200Z,15.07
2023-02-24T19:48:20.251Z,12.68
2023-02-24T19:50:47.652Z,15.18
2023-02-24T19:53:14.605Z,16.27
2023-02-24T19:55:48.426Z,12.25
2023-02-24T19:58:15.503Z,16.05
2023-02-24T20:00:42.843Z,14.40
2023-02-24T20:03:09.849Z,13.90
2023-02-24T20:05:37.591Z,14.52
2023-02-24T20:08:04.594Z,14.68
2023-02-24T20:10:32.167Z,12.85
2023-02-24T20:12:59.157Z,14.52
2023-02-24T20:15:26.500Z,14.68
2023-02-24T20:17:53.515Z,14.52
2023-02-24T20:20:21.038Z,15.43
2023-02-24T20:22:48.024Z,19.55
2023-02-24T20:25:15.819Z,16.02
2023-02-24T20:27:42.861Z,16.27
2023-02-24T20:30:10.821Z,16.83
2023-02-24T20:32:38.278Z,14.18
2023-02-24T20:35:06.085Z,15.63
2023-02-24T20:37:33.062Z,14.73
2023-02-24T20:40:00.296Z,13.85
2023-02-24T20:42:27.331Z,17.50
2023-02-24T20:44:54.782Z,12.65
2023-02-24T20:47:21.742Z,14.25
2023-02-24T20:49:49.114Z,14.20
2023-02-24T20:52:16.121Z,12.63
2023-02-24T20:54:45.569Z,16.85
2023-02-24T20:57:12.523Z,13.90
2023-02-24T20:59:49.306Z,14.23
2023-02-24T21:02:21.684Z,15.50
2023-02-24T21:04:49.009Z,12.73
2023-02-24T21:07:15.988Z,15.30
2023-02-24T21:09:43.379Z,11.80
2023-02-24T21:12:10.445Z,14.30
2023-02-24T21:14:37.695Z,13.65
2023-02-24T21:17:05.014Z,13.13
2023-02-24T21:19:32.216Z,13.35
2023-02-24T21:21:59.301Z,12.85
2023-02-24T21:24:26.812Z,14.55
2023-02-24T21:26:53.773Z,12.98
2023-02-24T21:29:21.116Z,11.23
2023-02-24T21:31:49.763Z,11.98
2023-02-24T21:34:17.153Z,13.18
2023-02-24T21:36:44.184Z,11.63
2023-02-24T21:39:15.185Z,15.95
2023-02-24T21:41:42.455Z,10.98
2023-02-24T21:44:14.233Z,12.23
2023-02-24T21:46:42.428Z,11.55
2023-02-24T21:49:14.381Z,12.30
2023-02-24T21:51:41.986Z,14.02
2023-02-24T21:54:12.442Z,12.45
2023-02-24T21:56:39.572Z,14.40
2023-02-24T21:59:09.194Z,12.10
2023-02-24T22:01:39.238Z,15.98
2023-02-24T22:04:10.324Z,11.32
2023-02-24T22:06:39.572Z,14.95
2023-02-24T22:09:08.655Z,12.25
2023-02-24T22:11:38.728Z,11.20
2023-02-24T22:14:11.488Z,13.63
2023-02-24T22:16:39.671Z,14.65
2023-02-24T22:19:07.390Z,12.77
2023-02-24T22:21:34.689Z,18.85
2023-02-24T22:24:03.809Z,12.68
2023-02-24T22:26:32.076Z,12.45
2023-02-24T22:29:00.807Z,11.85
2023-02-24T22:31:30.923Z,12.63
2023-02-24T22:33:58.787Z,12.55
2023-02-24T22:36:28.624Z,14.50
2023-02-24T22:38:57.447Z,12.23
2023-02-24T22:41:27.582Z,12.43
2023-02-24T22:43:54.906Z,12.80
2023-02-24T22:46:25.341Z,13.30
2023-02-24T22:48:53.122Z,14.05
2023-02-24T22:51:20.383Z,14.50
2023-02-24T22:53:49.654Z,13.93
2023-02-24T22:56:20.707Z,13.25
2023-02-24T22:58:48.945Z,13.73
2023-02-24T23:01:24.812Z,12.40
2023-02-24T23:03:52.631Z,12.88
2023-02-24T23:06:22.899Z,11.82
2023-02-24T23:08:51.451Z,12.40
2023-02-24T23:11:30.581Z,13.88
2023-02-24T23:14:01.257Z,12.80
2023-02-24T23:16:31.751Z,19.42
2023-02-24T23:19:05.154Z,13.07
2023-02-24T23:21:37.828Z,13.82
2023-02-24T23:26:36.996Z,13.20
2023-02-24T23:29:06.075Z,12.23
2023-02-24T23:31:33.430Z,14.65
2023-02-24T23:34:02.998Z,14.23
2023-02-24T23:36:30.781Z,13.35
2023-02-24T23:38:58.017Z,13.90
2023-02-24T23:41:24.958Z,14.70
2023-02-24T23:43:52.185Z,14.80
2023-02-24T23:46:19.208Z,14.50
2023-02-24T23:48:46.524Z,13.35
2023-02-24T23:51:14.241Z,13.25
2023-02-24T23:53:43.552Z,14.73
2023-02-24T23:56:17.742Z,14.63
2023-02-24T23:58:49.011Z,13.50
